createdAt,value
2024-02-04T00:05:22.029Z,7.47
2024-02-04T00:15:25.470Z,7.47
2024-02-04T00:25:30.501Z,7.44
2024-02-04T00:35:34.699Z,7.32
2024-02-04T00:45:37.858Z,7.33
2024-02-04T00:55:41.134Z,7.31
2024-02-04T01:05:44.305Z,7.28
2024-02-04T01:15:47.580Z,7.26
2024-02-04T01:25:50.837Z,7.23
2024-02-04T01:35:54.313Z,7.26
2024-02-04T01:45:59.169Z,7.24
2024-02-04T01:56:03.266Z,7.23
2024-02-04T02:06:07.095Z,7.29
2024-02-04T02:16:19.297Z,7.24
2024-02-04T02:26:23.728Z,7.10
2024-02-04T02:36:34.334Z,7.00
2024-02-04T02:46:38.008Z,6.98
2024-02-04T02:56:41.124Z,6.96
2024-02-04T03:06:44.255Z,6.94
2024-02-04T03:16:47.808Z,6.93
2024-02-04T03:26:51.554Z,6.96
2024-02-04T03:36:54.821Z,6.93
2024-02-04T03:46:58.577Z,6.99
2024-02-04T03:57:01.938Z,7.07
2024-02-04T04:07:05.479Z,6.82
2024-02-04T04:17:08.618Z,6.61
2024-02-04T04:27:11.816Z,6.45
2024-02-04T04:37:14.894Z,6.37
2024-02-04T04:47:18.202Z,6.31
2024-02-04T04:57:21.359Z,6.23
2024-02-04T05:07:24.614Z,6.22
2024-02-04T05:17:28.266Z,6.26
2024-02-04T05:27:31.597Z,6.24
2024-02-04T05:37:34.823Z,6.25
2024-02-04T05:47:38.219Z,6.30
2024-02-04T05:57:41.867Z,6.44
2024-02-04T06:07:45.273Z,6.59
2024-02-04T06:17:48.382Z,6.65
2024-02-04T06:27:51.797Z,6.49
2024-02-04T06:37:55.132Z,6.42
2024-02-04T06:47:58.731Z,6.33
2024-02-04T06:58:02.065Z,6.09
2024-02-04T07:08:05.396Z,5.94
2024-02-04T07:18:09.099Z,5.95
2024-02-04T07:28:12.551Z,6.07
2024-02-04T07:38:15.714Z,6.27
2024-02-04T07:48:20.791Z,6.47
2024-02-04T07:58:23.981Z,6.55
2024-02-04T08:08:27.081Z,6.61
2024-02-04T08:18:30.451Z,6.70
2024-02-04T08:28:33.624Z,6.71
2024-02-04T08:38:37.144Z,6.77
2024-02-04T08:48:40.430Z,6.78
2024-02-04T08:58:43.553Z,6.64
2024-02-04T09:08:46.864Z,6.42
2024-02-04T09:18:50.063Z,6.32
2024-02-04T09:28:53.316Z,6.15
2024-02-04T09:38:57.204Z,6.11
2024-02-04T09:49:02.328Z,6.18
2024-02-04T09:59:09.045Z,6.30
2024-02-04T10:09:12.241Z,6.72
2024-02-04T10:19:15.724Z,7.16
2024-02-04T10:29:19.872Z,7.06
2024-02-04T10:39:22.915Z,7.33
2024-02-04T10:49:28.268Z,7.89
2024-02-04T10:59:33.704Z,8.25
2024-02-04T11:09:38.171Z,8.44
2024-02-04T11:20:36.502Z,8.57
2024-02-04T11:30:40.207Z,8.70
2024-02-04T11:40:43.750Z,8.51
2024-02-04T11:50:54.277Z,8.30
2024-02-04T12:01:00.267Z,8.27
2024-02-04T12:11:04.385Z,8.41
2024-02-04T12:21:07.414Z,8.29
2024-02-04T12:31:21.459Z,8.29
2024-02-04T12:41:27.496Z,8.49
2024-02-04T12:51:34.957Z,8.55
2024-02-04T13:01:40.330Z,8.55
2024-02-04T13:11:49.517Z,8.48
2024-02-04T13:21:55.564Z,8.22
2024-02-04T13:32:02.415Z,8.03
2024-02-04T13:42:09.303Z,7.86
2024-02-04T13:52:12.656Z,7.80
2024-02-04T14:02:15.984Z,7.93
2024-02-04T14:12:22.185Z,8.03
2024-02-04T14:22:28.930Z,7.85
2024-02-04T14:32:32.471Z,7.69
2024-02-04T14:42:37.225Z,7.55
2024-02-04T14:52:41.716Z,7.30
2024-02-04T15:02:45.033Z,7.14
2024-02-04T15:12:48.625Z,7.14
2024-02-04T15:22:52.415Z,7.09
2024-02-04T15:32:56.173Z,7.04
2024-02-04T15:42:59.944Z,7.02
2024-02-04T15:53:03.975Z,7.03
2024-02-04T16:03:07.752Z,7.01
2024-02-04T16:13:11.986Z,6.92
2024-02-04T16:23:15.656Z,6.85
2024-02-04T16:33:18.779Z,6.84
2024-02-04T16:43:25.467Z,6.88
2024-02-04T16:53:29.378Z,6.90
2024-02-04T17:03:33.306Z,6.93
2024-02-04T17:13:37.498Z,7.07
2024-02-04T17:23:42.284Z,7.12
2024-02-04T17:33:48.726Z,7.12
2024-02-04T17:43:56.017Z,7.11
2024-02-04T17:54:01.053Z,7.07
2024-02-04T18:04:08.249Z,6.97
2024-02-04T18:14:11.483Z,6.97
2024-02-04T18:24:14.812Z,6.99
2024-02-04T18:34:18.100Z,7.01
2024-02-04T18:44:24.614Z,6.96
2024-02-04T18:54:30.401Z,6.87
2024-02-04T19:04:36.434Z,6.91
2024-02-04T19:14:46.703Z,7.01
2024-02-04T19:24:55.660Z,7.09
2024-02-04T19:34:59.348Z,7.12
2024-02-04T19:45:04.902Z,7.18
2024-02-04T19:55:08.958Z,7.25
2024-02-04T20:05:12.398Z,7.33
2024-02-04T20:15:16.274Z,7.37
2024-02-04T20:25:20.240Z,7.32
2024-02-04T20:35:26.299Z,7.29
2024-02-04T20:45:31.644Z,7.23
2024-02-04T20:55:37.751Z,7.09
2024-02-04T21:05:41.566Z,6.91
2024-02-04T21:15:44.945Z,6.86
2024-02-04T21:25:48.172Z,6.69
2024-02-04T21:35:52.133Z,6.53
2024-02-04T21:45:56.935Z,6.38
2024-02-04T21:56:00.060Z,6.25
2024-02-04T22:06:04.245Z,6.13
2024-02-04T22:16:07.468Z,6.07
2024-02-04T22:26:10.510Z,5.99
2024-02-04T22:36:14.751Z,5.89
2024-02-04T22:46:17.841Z,5.70
2024-02-04T22:56:20.968Z,5.56
2024-02-04T23:06:30.069Z,5.43
2024-02-04T23:16:34.463Z,5.31
2024-02-04T23:26:37.438Z,5.19
2024-02-04T23:36:40.629Z,5.12
2024-02-04T23:46:44.106Z,5.00
2024-02-04T23:56:47.320Z,4.94
